sensor_id;sensor_type;location;lat;lon;timestamp;temperature;humidity
13569;DHT22;6856;51.460;7.158;2023-04-25T00:01:15;10.10;59.10
13569;DHT22;6856;51.460;7.158;2023-04-25T00:03:50;10.10;59.10
13569;DHT22;6856;51.460;7.158;2023-04-25T00:06:26;10.10;59.20
13569;DHT22;6856;51.460;7.158;2023-04-25T00:09:01;10.10;59.30
13569;DHT22;6856;51.460;7.158;2023-04-25T00:11:40;10.10;59.30
13569;DHT22;6856;51.460;7.158;2023-04-25T00:14:19;10.10;59.30
13569;DHT22;6856;51.460;7.158;2023-04-25T00:16:52;10.10;59.30
13569;DHT22;6856;51.460;7.158;2023-04-25T00:19:27;10.10;59.50
13569;DHT22;6856;51.460;7.158;2023-04-25T00:22:01;10.10;59.60
13569;DHT22;6856;51.460;7.158;2023-04-25T00:24:35;10.10;59.60
13569;DHT22;6856;51.460;7.158;2023-04-25T00:27:08;10.10;59.70
13569;DHT22;6856;51.460;7.158;2023-04-25T00:29:44;10.20;59.80
13569;DHT22;6856;51.460;7.158;2023-04-25T00:32:17;10.10;59.80
13569;DHT22;6856;51.460;7.158;2023-04-25T00:34:51;10.10;59.80
13569;DHT22;6856;51.460;7.158;2023-04-25T00:37:27;10.10;59.80
13569;DHT22;6856;51.460;7.158;2023-04-25T00:40:01;10.10;59.60
13569;DHT22;6856;51.460;7.158;2023-04-25T00:42:36;10.10;59.70
13569;DHT22;6856;51.460;7.158;2023-04-25T00:45:13;10.10;59.90
13569;DHT22;6856;51.460;7.158;2023-04-25T00:47:47;10.10;60.00
13569;DHT22;6856;51.460;7.158;2023-04-25T00:50:22;10.10;60.00
13569;DHT22;6856;51.460;7.158;2023-04-25T00:52:56;10.10;60.00
13569;DHT22;6856;51.460;7.158;2023-04-25T00:55:30;10.20;60.20
13569;DHT22;6856;51.460;7.158;2023-04-25T00:58:10;10.10;60.10
13569;DHT22;6856;51.460;7.158;2023-04-25T01:00:45;10.20;60.30
13569;DHT22;6856;51.460;7.158;2023-04-25T01:03:20;10.20;60.40
13569;DHT22;6856;51.460;7.158;2023-04-25T01:05:56;10.20;60.30
13569;DHT22;6856;51.460;7.158;2023-04-25T01:08:30;10.20;60.40
13569;DHT22;6856;51.460;7.158;2023-04-25T01:11:08;10.20;60.40
13569;DHT22;6856;51.460;7.158;2023-04-25T01:13:42;10.20;60.40
13569;DHT22;6856;51.460;7.158;2023-04-25T01:16:17;10.20;60.50
13569;DHT22;6856;51.460;7.158;2023-04-25T01:18:54;10.20;60.50
13569;DHT22;6856;51.460;7.158;2023-04-25T01:21:30;10.20;60.50
13569;DHT22;6856;51.460;7.158;2023-04-25T01:24:04;10.20;60.50
13569;DHT22;6856;51.460;7.158;2023-04-25T01:26:40;10.20;60.60
13569;DHT22;6856;51.460;7.158;2023-04-25T01:29:20;10.20;60.60
13569;DHT22;6856;51.460;7.158;2023-04-25T01:31:55;10.20;60.60
13569;DHT22;6856;51.460;7.158;2023-04-25T01:34:30;10.20;61.30
13569;DHT22;6856;51.460;7.158;2023-04-25T01:37:06;10.20;60.70
13569;DHT22;6856;51.460;7.158;2023-04-25T01:39:40;10.20;60.70
13569;DHT22;6856;51.460;7.158;2023-04-25T01:42:14;10.20;60.80
13569;DHT22;6856;51.460;7.158;2023-04-25T01:44:48;10.40;61.00
13569;DHT22;6856;51.460;7.158;2023-04-25T01:47:22;10.20;60.80
13569;DHT22;6856;51.460;7.158;2023-04-25T01:49:56;10.20;60.70
13569;DHT22;6856;51.460;7.158;2023-04-25T01:52:31;10.20;60.80
13569;DHT22;6856;51.460;7.158;2023-04-25T01:55:06;10.20;60.70
13569;DHT22;6856;51.460;7.158;2023-04-25T01:57:41;10.20;60.90
13569;DHT22;6856;51.460;7.158;2023-04-25T02:00:16;10.20;60.90
13569;DHT22;6856;51.460;7.158;2023-04-25T02:03:03;10.40;61.00
13569;DHT22;6856;51.460;7.158;2023-04-25T02:05:38;10.20;60.80
13569;DHT22;6856;51.460;7.158;2023-04-25T02:08:13;10.20;60.90
13569;DHT22;6856;51.460;7.158;2023-04-25T02:10:47;10.20;60.90
13569;DHT22;6856;51.460;7.158;2023-04-25T02:13:21;10.20;60.80
13569;DHT22;6856;51.460;7.158;2023-04-25T02:15:55;10.20;60.80
13569;DHT22;6856;51.460;7.158;2023-04-25T02:18:29;10.10;60.80
13569;DHT22;6856;51.460;7.158;2023-04-25T02:21:04;10.10;60.90
13569;DHT22;6856;51.460;7.158;2023-04-25T02:23:39;10.10;60.90
13569;DHT22;6856;51.460;7.158;2023-04-25T02:26:13;10.10;61.00
13569;DHT22;6856;51.460;7.158;2023-04-25T02:28:46;10.10;61.00
13569;DHT22;6856;51.460;7.158;2023-04-25T02:31:23;10.10;61.10
13569;DHT22;6856;51.460;7.158;2023-04-25T02:33:58;10.10;61.90
13569;DHT22;6856;51.460;7.158;2023-04-25T02:36:31;10.10;61.30
13569;DHT22;6856;51.460;7.158;2023-04-25T02:39:07;10.10;61.30
13569;DHT22;6856;51.460;7.158;2023-04-25T02:41:46;10.10;61.40
13569;DHT22;6856;51.460;7.158;2023-04-25T02:44:19;10.10;61.40
13569;DHT22;6856;51.460;7.158;2023-04-25T02:46:54;10.10;61.40
13569;DHT22;6856;51.460;7.158;2023-04-25T02:49:28;10.10;61.60
13569;DHT22;6856;51.460;7.158;2023-04-25T02:52:02;10.10;61.60
13569;DHT22;6856;51.460;7.158;2023-04-25T02:54:37;10.20;61.80
13569;DHT22;6856;51.460;7.158;2023-04-25T02:57:13;10.00;61.80
13569;DHT22;6856;51.460;7.158;2023-04-25T02:59:47;10.10;61.90
13569;DHT22;6856;51.460;7.158;2023-04-25T03:02:21;10.10;61.70
13569;DHT22;6856;51.460;7.158;2023-04-25T03:04:54;10.00;61.80
13569;DHT22;6856;51.460;7.158;2023-04-25T03:07:31;10.00;61.90
13569;DHT22;6856;51.460;7.158;2023-04-25T03:10:08;10.00;62.00
13569;DHT22;6856;51.460;7.158;2023-04-25T03:12:42;10.00;62.30
13569;DHT22;6856;51.460;7.158;2023-04-25T03:15:17;10.00;62.20
13569;DHT22;6856;51.460;7.158;2023-04-25T03:17:51;10.00;62.40
13569;DHT22;6856;51.460;7.158;2023-04-25T03:20:25;10.00;62.30
13569;DHT22;6856;51.460;7.158;2023-04-25T03:22:58;10.00;62.30
13569;DHT22;6856;51.460;7.158;2023-04-25T03:25:35;10.10;62.40
13569;DHT22;6856;51.460;7.158;2023-04-25T03:28:08;10.00;62.60
13569;DHT22;6856;51.460;7.158;2023-04-25T03:30:42;10.00;62.50
13569;DHT22;6856;51.460;7.158;2023-04-25T03:33:16;9.90;62.50
13569;DHT22;6856;51.460;7.158;2023-04-25T03:35:50;9.90;62.40
13569;DHT22;6856;51.460;7.158;2023-04-25T03:38:26;9.90;62.50
13569;DHT22;6856;51.460;7.158;2023-04-25T03:41:01;9.90;62.60
13569;DHT22;6856;51.460;7.158;2023-04-25T03:43:37;9.90;62.60
13569;DHT22;6856;51.460;7.158;2023-04-25T03:46:11;9.90;62.60
13569;DHT22;6856;51.460;7.158;2023-04-25T03:48:48;9.90;62.70
13569;DHT22;6856;51.460;7.158;2023-04-25T03:51:22;9.90;62.60
13569;DHT22;6856;51.460;7.158;2023-04-25T03:53:56;9.90;62.80
13569;DHT22;6856;51.460;7.158;2023-04-25T03:56:33;9.90;62.90
13569;DHT22;6856;51.460;7.158;2023-04-25T03:59:07;9.90;62.80
13569;DHT22;6856;51.460;7.158;2023-04-25T04:01:41;9.90;62.80
13569;DHT22;6856;51.460;7.158;2023-04-25T04:04:16;9.90;62.80
13569;DHT22;6856;51.460;7.158;2023-04-25T04:06:50;9.80;62.80
13569;DHT22;6856;51.460;7.158;2023-04-25T04:09:24;9.80;62.80
13569;DHT22;6856;51.460;7.158;2023-04-25T04:12:02;9.90;62.90
13569;DHT22;6856;51.460;7.158;2023-04-25T04:14:40;9.90;63.10
13569;DHT22;6856;51.460;7.158;2023-04-25T04:17:14;9.90;63.00
13569;DHT22;6856;51.460;7.158;2023-04-25T04:19:47;9.90;63.00
13569;DHT22;6856;51.460;7.158;2023-04-25T04:22:22;9.90;62.70
13569;DHT22;6856;51.460;7.158;2023-04-25T04:24:58;9.90;62.30
13569;DHT22;6856;51.460;7.158;2023-04-25T04:27:34;9.90;62.10
13569;DHT22;6856;51.460;7.158;2023-04-25T04:30:22;9.90;61.70
13569;DHT22;6856;51.460;7.158;2023-04-25T04:32:57;9.80;61.50
13569;DHT22;6856;51.460;7.158;2023-04-25T04:35:31;9.80;61.20
13569;DHT22;6856;51.460;7.158;2023-04-25T04:38:04;9.80;61.10
13569;DHT22;6856;51.460;7.158;2023-04-25T04:40:38;9.80;61.00
13569;DHT22;6856;51.460;7.158;2023-04-25T04:43:13;9.70;60.90
13569;DHT22;6856;51.460;7.158;2023-04-25T04:45:49;9.40;60.80
13569;DHT22;6856;51.460;7.158;2023-04-25T04:48:22;9.70;61.00
13569;DHT22;6856;51.460;7.158;2023-04-25T04:50:56;9.70;60.80
13569;DHT22;6856;51.460;7.158;2023-04-25T04:53:30;9.70;60.80
13569;DHT22;6856;51.460;7.158;2023-04-25T04:56:07;9.60;60.80
13569;DHT22;6856;51.460;7.158;2023-04-25T04:58:43;9.60;60.80
13569;DHT22;6856;51.460;7.158;2023-04-25T05:01:21;9.60;61.00
13569;DHT22;6856;51.460;7.158;2023-04-25T05:03:55;9.60;61.20
13569;DHT22;6856;51.460;7.158;2023-04-25T05:06:32;9.60;61.10
13569;DHT22;6856;51.460;7.158;2023-04-25T05:09:06;9.60;61.20
13569;DHT22;6856;51.460;7.158;2023-04-25T05:11:40;9.60;61.10
13569;DHT22;6856;51.460;7.158;2023-04-25T05:14:16;9.60;61.20
13569;DHT22;6856;51.460;7.158;2023-04-25T05:16:50;9.60;61.30
13569;DHT22;6856;51.460;7.158;2023-04-25T05:19:23;9.60;61.50
13569;DHT22;6856;51.460;7.158;2023-04-25T05:21:59;9.60;61.50
13569;DHT22;6856;51.460;7.158;2023-04-25T05:24:35;9.60;61.60
13569;DHT22;6856;51.460;7.158;2023-04-25T05:27:09;9.60;61.60
13569;DHT22;6856;51.460;7.158;2023-04-25T05:29:44;9.60;61.70
13569;DHT22;6856;51.460;7.158;2023-04-25T05:32:18;9.70;61.70
13569;DHT22;6856;51.460;7.158;2023-04-25T05:34:52;9.90;61.80
13569;DHT22;6856;51.460;7.158;2023-04-25T05:37:26;9.70;61.70
13569;DHT22;6856;51.460;7.158;2023-04-25T05:40:02;9.70;61.80
13569;DHT22;6856;51.460;7.158;2023-04-25T05:42:38;9.70;62.00
13569;DHT22;6856;51.460;7.158;2023-04-25T05:45:13;9.70;62.00
13569;DHT22;6856;51.460;7.158;2023-04-25T05:47:50;9.70;62.20
13569;DHT22;6856;51.460;7.158;2023-04-25T05:50:23;9.70;62.40
13569;DHT22;6856;51.460;7.158;2023-04-25T05:52:57;9.80;62.50
13569;DHT22;6856;51.460;7.158;2023-04-25T05:55:32;9.80;62.60
13569;DHT22;6856;51.460;7.158;2023-04-25T05:58:06;9.80;62.60
13569;DHT22;6856;51.460;7.158;2023-04-25T06:00:41;10.10;62.80
13569;DHT22;6856;51.460;7.158;2023-04-25T06:03:15;9.80;62.60
13569;DHT22;6856;51.460;7.158;2023-04-25T06:05:51;9.80;62.50
13569;DHT22;6856;51.460;7.158;2023-04-25T06:08:25;9.90;62.60
13569;DHT22;6856;51.460;7.158;2023-04-25T06:10:59;9.90;62.60
13569;DHT22;6856;51.460;7.158;2023-04-25T06:13:32;9.90;62.50
13569;DHT22;6856;51.460;7.158;2023-04-25T06:16:08;9.90;62.60
13569;DHT22;6856;51.460;7.158;2023-04-25T06:18:43;9.90;62.60
13569;DHT22;6856;51.460;7.158;2023-04-25T06:21:18;10.00;62.70
13569;DHT22;6856;51.460;7.158;2023-04-25T06:23:52;10.00;62.80
13569;DHT22;6856;51.460;7.158;2023-04-25T06:26:26;10.00;62.70
13569;DHT22;6856;51.460;7.158;2023-04-25T06:29:00;10.10;62.60
13569;DHT22;6856;51.460;7.158;2023-04-25T06:31:38;10.10;62.30
13569;DHT22;6856;51.460;7.158;2023-04-25T06:34:15;10.20;62.30
13569;DHT22;6856;51.460;7.158;2023-04-25T06:36:55;10.20;62.30
13569;DHT22;6856;51.460;7.158;2023-04-25T06:39:28;10.20;62.40
13569;DHT22;6856;51.460;7.158;2023-04-25T06:42:03;10.20;62.50
13569;DHT22;6856;51.460;7.158;2023-04-25T06:44:40;10.30;62.50
13569;DHT22;6856;51.460;7.158;2023-04-25T06:47:15;10.30;62.30
13569;DHT22;6856;51.460;7.158;2023-04-25T06:49:49;10.30;62.20
13569;DHT22;6856;51.460;7.158;2023-04-25T06:52:26;10.40;62.10
13569;DHT22;6856;51.460;7.158;2023-04-25T06:55:04;10.40;61.90
13569;DHT22;6856;51.460;7.158;2023-04-25T06:57:40;10.40;62.00
13569;DHT22;6856;51.460;7.158;2023-04-25T07:00:15;10.50;62.00
13569;DHT22;6856;51.460;7.158;2023-04-25T07:02:51;10.50;62.00
13569;DHT22;6856;51.460;7.158;2023-04-25T07:05:26;10.50;61.50
13569;DHT22;6856;51.460;7.158;2023-04-25T07:08:00;10.50;61.30
13569;DHT22;6856;51.460;7.158;2023-04-25T07:10:37;10.50;61.20
13569;DHT22;6856;51.460;7.158;2023-04-25T07:13:10;10.50;61.60
13569;DHT22;6856;51.460;7.158;2023-04-25T07:15:48;10.50;60.80
13569;DHT22;6856;51.460;7.158;2023-04-25T07:18:29;10.50;60.80
13569;DHT22;6856;51.460;7.158;2023-04-25T07:21:03;10.50;60.60
13569;DHT22;6856;51.460;7.158;2023-04-25T07:23:37;10.50;60.40
13569;DHT22;6856;51.460;7.158;2023-04-25T07:26:12;10.50;60.20
13569;DHT22;6856;51.460;7.158;2023-04-25T07:28:47;10.50;60.10
13569;DHT22;6856;51.460;7.158;2023-04-25T07:31:24;10.50;59.90
13569;DHT22;6856;51.460;7.158;2023-04-25T07:34:03;10.50;59.90
13569;DHT22;6856;51.460;7.158;2023-04-25T07:36:37;10.50;59.60
13569;DHT22;6856;51.460;7.158;2023-04-25T07:39:12;10.60;60.00
13569;DHT22;6856;51.460;7.158;2023-04-25T07:41:46;10.60;59.30
13569;DHT22;6856;51.460;7.158;2023-04-25T07:44:20;10.60;59.10
13569;DHT22;6856;51.460;7.158;2023-04-25T07:47:00;10.60;59.00
13569;DHT22;6856;51.460;7.158;2023-04-25T07:49:37;10.60;58.90
13569;DHT22;6856;51.460;7.158;2023-04-25T07:52:12;10.70;59.10
13569;DHT22;6856;51.460;7.158;2023-04-25T07:54:46;10.70;59.00
13569;DHT22;6856;51.460;7.158;2023-04-25T07:57:23;10.70;58.90
13569;DHT22;6856;51.460;7.158;2023-04-25T07:59:57;10.80;59.10
13569;DHT22;6856;51.460;7.158;2023-04-25T08:02:31;10.80;59.10
13569;DHT22;6856;51.460;7.158;2023-04-25T08:05:09;10.90;59.30
13569;DHT22;6856;51.460;7.158;2023-04-25T08:07:48;10.90;59.30
13569;DHT22;6856;51.460;7.158;2023-04-25T08:10:22;11.00;59.40
13569;DHT22;6856;51.460;7.158;2023-04-25T08:12:56;11.00;59.10
13569;DHT22;6856;51.460;7.158;2023-04-25T08:15:30;11.10;59.00
13569;DHT22;6856;51.460;7.158;2023-04-25T08:18:03;11.20;58.80
13569;DHT22;6856;51.460;7.158;2023-04-25T08:20:39;11.50;58.80
13569;DHT22;6856;51.460;7.158;2023-04-25T08:23:13;11.30;58.40
13569;DHT22;6856;51.460;7.158;2023-04-25T08:25:46;11.50;58.50
13569;DHT22;6856;51.460;7.158;2023-04-25T08:28:21;11.50;58.30
13569;DHT22;6856;51.460;7.158;2023-04-25T08:30:55;11.50;58.40
13569;DHT22;6856;51.460;7.158;2023-04-25T08:33:30;11.50;58.30
13569;DHT22;6856;51.460;7.158;2023-04-25T08:36:06;11.60;58.60
13569;DHT22;6856;51.460;7.158;2023-04-25T08:38:41;11.70;57.80
13569;DHT22;6856;51.460;7.158;2023-04-25T08:41:15;11.70;57.70
13569;DHT22;6856;51.460;7.158;2023-04-25T08:43:51;11.80;57.50
13569;DHT22;6856;51.460;7.158;2023-04-25T08:46:27;11.80;57.20
13569;DHT22;6856;51.460;7.158;2023-04-25T08:49:02;11.90;56.90
13569;DHT22;6856;51.460;7.158;2023-04-25T08:51:44;11.90;56.60
13569;DHT22;6856;51.460;7.158;2023-04-25T08:54:20;11.90;56.20
13569;DHT22;6856;51.460;7.158;2023-04-25T08:57:02;11.90;56.40
13569;DHT22;6856;51.460;7.158;2023-04-25T08:59:37;11.90;56.50
13569;DHT22;6856;51.460;7.158;2023-04-25T09:02:18;11.90;56.20
13569;DHT22;6856;51.460;7.158;2023-04-25T09:04:54;11.60;56.00
13569;DHT22;6856;51.460;7.158;2023-04-25T09:07:29;12.00;56.40
13569;DHT22;6856;51.460;7.158;2023-04-25T09:10:04;12.10;56.50
13569;DHT22;6856;51.460;7.158;2023-04-25T09:12:38;12.20;56.40
13569;DHT22;6856;51.460;7.158;2023-04-25T09:15:13;12.30;56.00
13569;DHT22;6856;51.460;7.158;2023-04-25T09:17:55;12.40;56.00
13569;DHT22;6856;51.460;7.158;2023-04-25T09:20:30;12.40;56.00
13569;DHT22;6856;51.460;7.158;2023-04-25T09:23:14;12.50;56.00
13569;DHT22;6856;51.460;7.158;2023-04-25T09:25:50;12.60;55.80
13569;DHT22;6856;51.460;7.158;2023-04-25T09:28:26;12.70;55.60
13569;DHT22;6856;51.460;7.158;2023-04-25T09:31:01;12.70;55.10
13569;DHT22;6856;51.460;7.158;2023-04-25T09:33:35;12.70;55.30
13569;DHT22;6856;51.460;7.158;2023-04-25T09:36:12;12.70;54.70
13569;DHT22;6856;51.460;7.158;2023-04-25T09:38:52;12.80;54.60
13569;DHT22;6856;51.460;7.158;2023-04-25T09:41:26;12.80;54.30
13569;DHT22;6856;51.460;7.158;2023-04-25T09:44:00;12.80;54.70
13569;DHT22;6856;51.460;7.158;2023-04-25T09:46:35;12.80;54.90
13569;DHT22;6856;51.460;7.158;2023-04-25T09:49:09;12.90;54.80
13569;DHT22;6856;51.460;7.158;2023-04-25T09:51:54;12.90;54.80
13569;DHT22;6856;51.460;7.158;2023-04-25T09:54:32;13.00;54.60
13569;DHT22;6856;51.460;7.158;2023-04-25T09:57:12;13.00;54.20
13569;DHT22;6856;51.460;7.158;2023-04-25T09:59:48;13.10;53.90
13569;DHT22;6856;51.460;7.158;2023-04-25T10:02:26;13.10;53.70
13569;DHT22;6856;51.460;7.158;2023-04-25T10:05:05;13.20;53.60
13569;DHT22;6856;51.460;7.158;2023-04-25T10:07:41;13.20;53.80
13569;DHT22;6856;51.460;7.158;2023-04-25T10:10:20;13.20;53.60
13569;DHT22;6856;51.460;7.158;2023-04-25T10:12:59;13.20;53.00
13569;DHT22;6856;51.460;7.158;2023-04-25T10:15:35;13.50;53.30
13569;DHT22;6856;51.460;7.158;2023-04-25T10:18:11;13.30;53.30
13569;DHT22;6856;51.460;7.158;2023-04-25T10:20:45;13.50;53.60
13569;DHT22;6856;51.460;7.158;2023-04-25T10:23:25;13.60;53.80
13569;DHT22;6856;51.460;7.158;2023-04-25T10:26:02;13.80;53.20
13569;DHT22;6856;51.460;7.158;2023-04-25T10:28:57;13.90;53.40
13569;DHT22;6856;51.460;7.158;2023-04-25T10:31:44;14.00;51.30
13569;DHT22;6856;51.460;7.158;2023-04-25T10:34:24;14.10;51.20
13569;DHT22;6856;51.460;7.158;2023-04-25T10:37:14;14.10;51.10
13569;DHT22;6856;51.460;7.158;2023-04-25T10:39:48;14.00;51.00
13569;DHT22;6856;51.460;7.158;2023-04-25T10:42:24;14.00;50.90
13569;DHT22;6856;51.460;7.158;2023-04-25T10:45:05;14.00;50.70
13569;DHT22;6856;51.460;7.158;2023-04-25T10:47:45;13.90;50.50
13569;DHT22;6856;51.460;7.158;2023-04-25T10:50:20;13.80;50.90
13569;DHT22;6856;51.460;7.158;2023-04-25T10:52:54;13.80;50.70
13569;DHT22;6856;51.460;7.158;2023-04-25T10:55:49;13.70;50.70
13569;DHT22;6856;51.460;7.158;2023-04-25T10:58:26;13.70;50.30
13569;DHT22;6856;51.460;7.158;2023-04-25T11:01:01;13.60;50.40
13569;DHT22;6856;51.460;7.158;2023-04-25T11:03:39;13.60;50.40
13569;DHT22;6856;51.460;7.158;2023-04-25T11:06:22;13.50;50.40
13569;DHT22;6856;51.460;7.158;2023-04-25T11:09:01;13.40;50.60
13569;DHT22;6856;51.460;7.158;2023-04-25T11:11:36;13.30;50.90
13569;DHT22;6856;51.460;7.158;2023-04-25T11:14:12;13.30;51.30
13569;DHT22;6856;51.460;7.158;2023-04-25T11:16:46;13.20;51.60
13569;DHT22;6856;51.460;7.158;2023-04-25T11:19:20;13.10;51.90
13569;DHT22;6856;51.460;7.158;2023-04-25T11:21:55;13.10;52.10
13569;DHT22;6856;51.460;7.158;2023-04-25T11:24:30;13.00;52.50
13569;DHT22;6856;51.460;7.158;2023-04-25T11:27:06;13.00;52.80
13569;DHT22;6856;51.460;7.158;2023-04-25T11:29:41;13.00;53.00
13569;DHT22;6856;51.460;7.158;2023-04-25T11:32:18;12.90;53.10
13569;DHT22;6856;51.460;7.158;2023-04-25T11:34:52;12.90;53.40
13569;DHT22;6856;51.460;7.158;2023-04-25T11:37:26;12.90;53.40
13569;DHT22;6856;51.460;7.158;2023-04-25T11:40:03;12.90;53.50
13569;DHT22;6856;51.460;7.158;2023-04-25T11:42:45;13.00;53.90
13569;DHT22;6856;51.460;7.158;2023-04-25T11:45:20;13.00;53.50
13569;DHT22;6856;51.460;7.158;2023-04-25T11:47:56;13.00;53.30
13569;DHT22;6856;51.460;7.158;2023-04-25T11:50:34;13.10;53.50
13569;DHT22;6856;51.460;7.158;2023-04-25T11:53:08;13.20;53.80
13569;DHT22;6856;51.460;7.158;2023-04-25T11:55:45;13.30;54.00
13569;DHT22;6856;51.460;7.158;2023-04-25T11:58:19;13.40;54.00
13569;DHT22;6856;51.460;7.158;2023-04-25T12:00:56;13.60;53.80
13569;DHT22;6856;51.460;7.158;2023-04-25T12:03:47;13.80;53.20
13569;DHT22;6856;51.460;7.158;2023-04-25T12:06:26;13.90;52.30
13569;DHT22;6856;51.460;7.158;2023-04-25T12:09:02;14.20;52.10
13569;DHT22;6856;51.460;7.158;2023-04-25T12:11:58;14.30;51.50
13569;DHT22;6856;51.460;7.158;2023-04-25T12:14:35;14.40;50.70
13569;DHT22;6856;51.460;7.158;2023-04-25T12:17:12;14.50;51.40
13569;DHT22;6856;51.460;7.158;2023-04-25T12:19:48;14.70;51.10
13569;DHT22;6856;51.460;7.158;2023-04-25T12:22:23;14.70;50.30
13569;DHT22;6856;51.460;7.158;2023-04-25T12:24:57;14.80;49.70
13569;DHT22;6856;51.460;7.158;2023-04-25T12:27:33;14.80;49.20
13569;DHT22;6856;51.460;7.158;2023-04-25T12:30:08;14.70;49.20
13569;DHT22;6856;51.460;7.158;2023-04-25T12:32:48;14.60;49.30
13569;DHT22;6856;51.460;7.158;2023-04-25T12:35:26;14.60;49.20
13569;DHT22;6856;51.460;7.158;2023-04-25T12:38:00;14.50;49.00
13569;DHT22;6856;51.460;7.158;2023-04-25T12:40:34;14.50;49.40
13569;DHT22;6856;51.460;7.158;2023-04-25T12:43:08;14.50;49.60
13569;DHT22;6856;51.460;7.158;2023-04-25T12:45:45;14.50;49.40
13569;DHT22;6856;51.460;7.158;2023-04-25T12:48:25;14.50;49.80
13569;DHT22;6856;51.460;7.158;2023-04-25T12:50:59;14.50;50.00
13569;DHT22;6856;51.460;7.158;2023-04-25T12:53:33;14.60;50.40
13569;DHT22;6856;51.460;7.158;2023-04-25T12:56:09;14.80;50.20
13569;DHT22;6856;51.460;7.158;2023-04-25T12:58:44;14.80;49.70
13569;DHT22;6856;51.460;7.158;2023-04-25T13:01:20;14.90;49.10
13569;DHT22;6856;51.460;7.158;2023-04-25T13:03:59;14.90;48.90
13569;DHT22;6856;51.460;7.158;2023-04-25T13:06:34;14.80;48.60
13569;DHT22;6856;51.460;7.158;2023-04-25T13:09:08;14.80;48.60
13569;DHT22;6856;51.460;7.158;2023-04-25T13:11:46;14.70;48.60
13569;DHT22;6856;51.460;7.158;2023-04-25T13:14:20;14.60;48.80
13569;DHT22;6856;51.460;7.158;2023-04-25T13:16:54;14.50;48.90
13569;DHT22;6856;51.460;7.158;2023-04-25T13:19:30;14.40;49.10
13569;DHT22;6856;51.460;7.158;2023-04-25T13:22:05;14.30;49.20
13569;DHT22;6856;51.460;7.158;2023-04-25T13:24:41;14.20;49.40
13569;DHT22;6856;51.460;7.158;2023-04-25T13:27:14;14.20;49.50
13569;DHT22;6856;51.460;7.158;2023-04-25T13:29:48;14.10;49.70
13569;DHT22;6856;51.460;7.158;2023-04-25T13:32:24;14.00;49.70
13569;DHT22;6856;51.460;7.158;2023-04-25T13:35:00;14.00;49.60
13569;DHT22;6856;51.460;7.158;2023-04-25T13:37:39;13.90;49.10
13569;DHT22;6856;51.460;7.158;2023-04-25T13:40:16;13.90;49.40
13569;DHT22;6856;51.460;7.158;2023-04-25T13:42:50;13.80;49.40
13569;DHT22;6856;51.460;7.158;2023-04-25T13:45:24;13.70;49.50
13569;DHT22;6856;51.460;7.158;2023-04-25T13:47:58;13.70;49.60
13569;DHT22;6856;51.460;7.158;2023-04-25T13:50:34;13.60;49.70
13569;DHT22;6856;51.460;7.158;2023-04-25T13:53:08;13.60;49.80
13569;DHT22;6856;51.460;7.158;2023-04-25T13:55:41;13.60;50.00
13569;DHT22;6856;51.460;7.158;2023-04-25T13:58:15;13.60;49.90
13569;DHT22;6856;51.460;7.158;2023-04-25T14:00:54;13.50;49.90
13569;DHT22;6856;51.460;7.158;2023-04-25T14:03:28;13.60;49.70
13569;DHT22;6856;51.460;7.158;2023-04-25T14:06:04;13.60;49.90
13569;DHT22;6856;51.460;7.158;2023-04-25T14:08:40;13.60;49.80
13569;DHT22;6856;51.460;7.158;2023-04-25T14:11:14;13.70;49.90
13569;DHT22;6856;51.460;7.158;2023-04-25T14:13:49;13.80;49.80
13569;DHT22;6856;51.460;7.158;2023-04-25T14:16:24;13.90;49.50
13569;DHT22;6856;51.460;7.158;2023-04-25T14:18:58;14.00;49.30
13569;DHT22;6856;51.460;7.158;2023-04-25T14:21:35;14.20;49.60
13569;DHT22;6856;51.460;7.158;2023-04-25T14:24:09;14.20;49.70
13569;DHT22;6856;51.460;7.158;2023-04-25T14:26:44;14.40;49.60
13569;DHT22;6856;51.460;7.158;2023-04-25T14:29:18;14.50;49.10
13569;DHT22;6856;51.460;7.158;2023-04-25T14:31:53;14.60;49.20
13569;DHT22;6856;51.460;7.158;2023-04-25T14:34:29;14.70;48.50
13569;DHT22;6856;51.460;7.158;2023-04-25T14:37:04;14.80;48.20
13569;DHT22;6856;51.460;7.158;2023-04-25T14:39:38;14.80;47.80
13569;DHT22;6856;51.460;7.158;2023-04-25T14:42:12;14.90;47.70
13569;DHT22;6856;51.460;7.158;2023-04-25T14:44:46;14.90;47.20
13569;DHT22;6856;51.460;7.158;2023-04-25T14:47:23;14.90;47.10
13569;DHT22;6856;51.460;7.158;2023-04-25T14:49:58;14.90;47.60
13569;DHT22;6856;51.460;7.158;2023-04-25T14:52:34;15.00;47.80
13569;DHT22;6856;51.460;7.158;2023-04-25T14:55:11;15.00;47.40
13569;DHT22;6856;51.460;7.158;2023-04-25T14:57:46;15.10;47.10
13569;DHT22;6856;51.460;7.158;2023-04-25T15:00:23;15.10;46.90
13569;DHT22;6856;51.460;7.158;2023-04-25T15:02:58;15.10;46.80
13569;DHT22;6856;51.460;7.158;2023-04-25T15:05:32;15.10;46.50
13569;DHT22;6856;51.460;7.158;2023-04-25T15:08:07;15.20;46.40
13569;DHT22;6856;51.460;7.158;2023-04-25T15:10:43;15.10;46.50
13569;DHT22;6856;51.460;7.158;2023-04-25T15:13:19;15.10;46.90
13569;DHT22;6856;51.460;7.158;2023-04-25T15:15:56;15.00;47.10
13569;DHT22;6856;51.460;7.158;2023-04-25T15:18:31;15.00;47.40
13569;DHT22;6856;51.460;7.158;2023-04-25T15:21:05;15.00;47.70
13569;DHT22;6856;51.460;7.158;2023-04-25T15:23:41;15.00;48.00
13569;DHT22;6856;51.460;7.158;2023-04-25T15:26:15;15.00;48.30
13569;DHT22;6856;51.460;7.158;2023-04-25T15:28:49;15.00;48.30
13569;DHT22;6856;51.460;7.158;2023-04-25T15:31:22;15.10;48.30
13569;DHT22;6856;51.460;7.158;2023-04-25T15:33:56;15.10;48.00
13569;DHT22;6856;51.460;7.158;2023-04-25T15:36:30;15.20;47.90
13569;DHT22;6856;51.460;7.158;2023-04-25T15:39:07;15.20;47.60
13569;DHT22;6856;51.460;7.158;2023-04-25T15:41:41;14.90;46.90
13569;DHT22;6856;51.460;7.158;2023-04-25T15:44:15;15.30;47.30
13569;DHT22;6856;51.460;7.158;2023-04-25T15:46:51;15.30;47.30
13569;DHT22;6856;51.460;7.158;2023-04-25T15:49:28;15.30;46.90
13569;DHT22;6856;51.460;7.158;2023-04-25T15:52:02;15.30;46.90
13569;DHT22;6856;51.460;7.158;2023-04-25T15:54:37;15.30;46.90
13569;DHT22;6856;51.460;7.158;2023-04-25T15:57:11;15.40;46.90
13569;DHT22;6856;51.460;7.158;2023-04-25T15:59:45;15.40;46.90
13569;DHT22;6856;51.460;7.158;2023-04-25T16:02:18;15.40;46.90
13569;DHT22;6856;51.460;7.158;2023-04-25T16:04:56;15.40;46.60
13569;DHT22;6856;51.460;7.158;2023-04-25T16:07:30;15.40;46.10
13569;DHT22;6856;51.460;7.158;2023-04-25T16:10:07;15.40;45.90
13569;DHT22;6856;51.460;7.158;2023-04-25T16:12:51;15.30;45.50
13569;DHT22;6856;51.460;7.158;2023-04-25T16:15:24;15.30;45.20
13569;DHT22;6856;51.460;7.158;2023-04-25T16:17:58;15.20;46.40
13569;DHT22;6856;51.460;7.158;2023-04-25T16:20:36;15.10;45.70
13569;DHT22;6856;51.460;7.158;2023-04-25T16:23:14;15.10;45.80
13569;DHT22;6856;51.460;7.158;2023-04-25T16:25:49;15.10;45.70
13569;DHT22;6856;51.460;7.158;2023-04-25T16:28:23;15.00;45.50
13569;DHT22;6856;51.460;7.158;2023-04-25T16:30:57;15.00;45.60
13569;DHT22;6856;51.460;7.158;2023-04-25T16:33:31;15.00;45.70
13569;DHT22;6856;51.460;7.158;2023-04-25T16:36:07;15.00;45.70
13569;DHT22;6856;51.460;7.158;2023-04-25T16:38:41;14.90;45.70
13569;DHT22;6856;51.460;7.158;2023-04-25T16:41:23;14.90;45.70
13569;DHT22;6856;51.460;7.158;2023-04-25T16:44:01;14.80;45.40